Time;durP1;ratioP1;P1;durP2;ratioP2;P2;SDS_P1;SDS_P2;PMS_P1;PMS_P2;Temp;Humidity;BMP_temperature;BMP_pressure;BME280_temperature;BME280_humidity;BME280_pressure;Samples;Min_cycle;Max_cycle;Signal;HPM_P1;HPM_P2
2022/09/17 00:01:04;;;;;;;25.50;15.10;;;16.70;99.90;;;;;;5015603;28;20030;-59
2022/09/17 00:03:33;;;;;;;20.50;9.55;;;16.70;99.90;;;;;;5014508;28;20494;-58
2022/09/17 00:06:05;;;;;;;15.20;7.25;;;16.70;99.90;;;;;;5015904;28;20475;-59
2022/09/17 00:08:32;;;;;;;15.65;8.18;;;16.70;99.90;;;;;;5015774;28;20033;-59
2022/09/17 00:11:09;;;;;;;17.35;8.45;;;16.70;99.90;;;;;;5015694;28;20120;-58
2022/09/17 00:13:35;;;;;;;15.98;10.05;;;16.70;99.90;;;;;;5015424;28;20033;-58
2022/09/17 00:16:02;;;;;;;20.85;12.75;;;16.40;99.90;;;;;;5015577;28;20036;-58
2022/09/17 00:18:27;;;;;;;20.77;14.52;;;16.30;99.90;;;;;;5015402;28;20022;-58
2022/09/17 00:20:53;;;;;;;19.30;13.98;;;15.90;99.90;;;;;;5015289;28;20399;-58
2022/09/17 00:23:19;;;;;;;22.85;15.05;;;15.80;99.90;;;;;;5015310;28;20101;-58
2022/09/17 00:25:45;;;;;;;20.63;14.93;;;15.70;99.90;;;;;;5015273;28;20033;-58
2022/09/17 00:28:13;;;;;;;23.60;14.32;;;15.70;99.90;;;;;;5015516;28;20026;-59
2022/09/17 00:30:40;;;;;;;21.90;14.60;;;15.80;99.90;;;;;;5015212;28;20116;-59
2022/09/17 00:33:06;;;;;;;20.63;14.43;;;15.90;99.90;;;;;;5015348;28;20132;-58
2022/09/17 00:35:32;;;;;;;22.45;15.43;;;15.80;99.90;;;;;;5015260;28;20054;-58
2022/09/17 00:37:58;;;;;;;18.13;12.52;;;15.70;99.90;;;;;;5015143;28;20032;-58
2022/09/17 00:40:24;;;;;;;14.90;12.07;;;15.70;99.90;;;;;;5014982;28;20108;-58
2022/09/17 00:42:52;;;;;;;18.45;12.77;;;15.70;99.90;;;;;;5015103;28;20551;-59
2022/09/17 00:45:18;;;;;;;15.75;10.45;;;15.60;99.90;;;;;;5015159;28;20026;-59
2022/09/17 00:47:56;;;;;;;13.98;9.55;;;15.60;99.90;;;;;;5015092;28;20030;-59
2022/09/17 00:50:30;;;;;;;12.73;8.18;;;15.60;99.90;;;;;;5015179;28;20121;-58
2022/09/17 00:53:02;;;;;;;10.40;7.43;;;15.70;99.90;;;;;;5014755;28;20440;-58
2022/09/17 00:55:35;;;;;;;11.68;7.70;;;15.70;99.90;;;;;;5014921;28;20026;-58
2022/09/17 00:58:04;;;;;;;10.43;5.40;;;15.70;99.90;;;;;;5015051;28;20029;-58
2022/09/17 01:00:31;;;;;;;8.88;4.63;;;15.60;99.90;;;;;;5013707;28;20014;-58
2022/09/17 01:02:57;;;;;;;8.73;3.72;;;15.50;99.90;;;;;;5014956;28;20045;-58
2022/09/17 01:05:38;;;;;;;5.07;3.13;;;15.10;99.90;;;;;;5014772;28;20047;-58
2022/09/17 01:08:13;;;;;;;5.00;2.00;;;15.10;99.90;;;;;;5014855;28;20041;-58
2022/09/17 01:10:56;;;;;;;1.77;1.58;;;15.10;99.90;;;;;;5014791;28;20034;-58
2022/09/17 01:14:12;;;;;;;6.10;1.70;;;15.00;99.90;;;;;;5015045;28;20037;-58
2022/09/17 01:17:06;;;;;;;4.25;1.67;;;15.00;99.90;;;;;;5011739;28;20149;-58
2022/09/17 01:19:32;;;;;;;5.10;1.40;;;14.90;99.90;;;;;;5014603;28;20101;-58
2022/09/17 01:22:19;;;;;;;4.07;1.30;;;14.90;99.90;;;;;;5014448;28;20487;-58
2022/09/17 01:25:16;;;;;;;4.50;0.85;;;14.80;99.90;;;;;;5014715;28;20030;-58
2022/09/17 01:27:57;;;;;;;2.75;1.38;;;15.00;99.90;;;;;;5013719;28;20550;-58
2022/09/17 01:30:51;;;;;;;8.82;2.67;;;15.00;99.90;;;;;;5014445;28;20515;-58
2022/09/17 01:33:20;;;;;;;5.15;1.80;;;15.00;99.90;;;;;;5014581;28;20036;-58
2022/09/17 01:35:59;;;;;;;6.07;1.48;;;15.00;99.90;;;;;;5014494;28;20022;-58
2022/09/17 01:38:33;;;;;;;5.93;1.83;;;15.00;99.90;;;;;;5014559;28;20037;-58
2022/09/17 01:41:26;;;;;;;4.97;1.27;;;15.00;99.90;;;;;;5014465;28;20434;-58
2022/09/17 01:44:02;;;;;;;8.68;1.20;;;15.00;99.90;;;;;;5014567;28;20040;-58
2022/09/17 01:46:48;;;;;;;5.38;1.40;;;15.10;99.90;;;;;;5014404;28;20446;-58
2022/09/17 01:49:15;;;;;;;3.95;0.90;;;15.00;99.90;;;;;;5014389;28;20040;-58
2022/09/17 01:51:47;;;;;;;5.18;1.00;;;15.00;99.90;;;;;;5014134;28;20048;-58
2022/09/17 01:54:19;;;;;;;3.85;1.10;;;15.10;99.90;;;;;;5014360;28;20037;-57
2022/09/17 01:57:07;;;;;;;3.15;1.33;;;15.10;99.90;;;;;;5014277;28;20388;-58
2022/09/17 02:00:05;;;;;;;2.22;0.90;;;15.10;99.90;;;;;;5014308;28;20030;-58
2022/09/17 02:02:44;;;;;;;3.42;1.13;;;15.10;99.90;;;;;;5014253;28;20030;-58
2022/09/17 02:05:23;;;;;;;1.70;1.00;;;15.10;99.90;;;;;;5014299;28;20543;-58
2022/09/17 02:07:58;;;;;;;6.70;0.88;;;15.10;99.90;;;;;;5014199;28;20029;-57
2022/09/17 02:10:35;;;;;;;3.83;0.80;;;15.10;99.90;;;;;;5029389;28;20033;-57
2022/09/17 02:13:08;;;;;;;2.40;0.73;;;15.10;99.90;;;;;;5018057;28;20078;-58
2022/09/17 02:15:39;;;;;;;1.83;0.95;;;15.20;99.90;;;;;;5017828;28;20041;-58
2022/09/17 02:18:22;;;;;;;3.53;0.50;;;15.10;99.90;;;;;;5032988;28;20057;-58
2022/09/17 02:20:55;;;;;;;1.98;0.60;;;15.10;99.90;;;;;;5017568;28;20022;-57
2022/09/17 02:23:30;;;;;;;5.68;0.88;;;15.10;99.90;;;;;;5017753;28;20034;-57
2022/09/17 02:26:10;;;;;;;2.72;0.70;;;15.10;99.90;;;;;;5017526;28;20026;-58
2022/09/17 02:28:52;;;;;;;4.03;0.88;;;15.10;99.90;;;;;;5017569;28;20038;-58
2022/09/17 02:31:18;;;;;;;5.68;1.25;;;15.10;99.90;;;;;;5017466;28;20045;-58
2022/09/17 02:33:47;;;;;;;1.60;0.60;;;15.10;99.90;;;;;;5017431;28;20115;-58
2022/09/17 02:36:14;;;;;;;3.85;0.77;;;15.00;99.90;;;;;;5017420;28;20053;-57
2022/09/17 02:38:42;;;;;;;1.63;0.50;;;15.10;99.90;;;;;;5017275;28;20376;-58
2022/09/17 02:41:22;;;;;;;4.22;0.50;;;15.10;99.90;;;;;;5017166;28;20029;-58
2022/09/17 02:44:14;;;;;;;2.42;0.80;;;15.10;99.90;;;;;;5017411;28;20034;-58
2022/09/17 02:46:46;;;;;;;3.03;0.80;;;15.20;99.90;;;;;;5017098;28;20034;-58
2022/09/17 02:49:53;;;;;;;6.90;0.88;;;15.10;99.90;;;;;;5017189;28;20487;-58
2022/09/17 02:52:48;;;;;;;2.10;0.80;;;15.20;99.90;;;;;;5016970;28;20054;-58
2022/09/17 02:55:18;;;;;;;1.80;0.80;;;15.20;99.90;;;;;;5017157;28;20038;-58
2022/09/17 02:57:58;;;;;;;1.75;0.80;;;15.10;99.90;;;;;;5017171;28;20061;-57
2022/09/17 03:00:25;;;;;;;1.75;0.82;;;15.10;99.90;;;;;;5016986;28;20058;-58
2022/09/17 03:03:03;;;;;;;1.50;0.82;;;15.20;99.90;;;;;;5016903;28;20025;-58
2022/09/17 03:05:29;;;;;;;2.03;0.57;;;15.00;99.90;;;;;;5016993;28;20065;-58
2022/09/17 03:07:58;;;;;;;1.30;0.52;;;15.00;99.90;;;;;;5016961;28;20443;-58
2022/09/17 03:10:29;;;;;;;2.35;0.80;;;15.00;99.90;;;;;;5016967;28;20048;-58
2022/09/17 03:12:55;;;;;;;1.98;0.50;;;14.90;99.90;;;;;;5016699;28;20034;-58
2022/09/17 03:15:21;;;;;;;2.10;0.70;;;14.90;99.90;;;;;;5016705;28;20355;-58
2022/09/17 03:17:47;;;;;;;4.05;0.82;;;14.80;99.90;;;;;;5016665;28;20021;-58
2022/09/17 03:20:14;;;;;;;1.80;0.75;;;14.70;99.90;;;;;;5016431;28;20034;-57
2022/09/17 03:22:41;;;;;;;4.70;1.10;;;14.70;99.90;;;;;;5015441;28;20044;-58
2022/09/17 03:25:07;;;;;;;3.83;1.63;;;14.80;99.90;;;;;;5016475;28;20510;-58
2022/09/17 03:27:34;;;;;;;3.35;1.10;;;14.70;99.90;;;;;;5016546;28;20033;-58
2022/09/17 03:30:00;;;;;;;2.90;1.20;;;14.80;99.90;;;;;;5016457;28;20577;-58
2022/09/17 03:32:25;;;;;;;2.22;1.20;;;14.80;99.90;;;;;;5016252;28;20022;-57
2022/09/17 03:34:53;;;;;;;3.63;1.60;;;14.60;99.90;;;;;;5016498;28;20030;-57
2022/09/17 03:37:19;;;;;;;3.33;1.10;;;14.60;99.90;;;;;;5015998;28;20058;-58
2022/09/17 03:39:45;;;;;;;5.65;1.55;;;14.70;99.90;;;;;;5016250;28;20030;-57
2022/09/17 03:42:11;;;;;;;5.28;1.63;;;14.40;99.90;;;;;;5016107;28;20033;-58
2022/09/17 03:44:37;;;;;;;1.98;1.25;;;14.50;99.90;;;;;;5014848;28;20042;-57
2022/09/17 03:47:03;;;;;;;4.03;1.65;;;14.30;99.90;;;;;;5016133;28;20049;-57
2022/09/17 03:49:29;;;;;;;3.40;1.65;;;14.30;99.90;;;;;;5015990;28;20044;-58
2022/09/17 03:51:55;;;;;;;7.03;2.00;;;14.10;99.90;;;;;;5015646;28;20049;-58
2022/09/17 03:54:21;;;;;;;4.95;1.50;;;14.20;99.90;;;;;;5015991;28;20042;-58
2022/09/17 03:56:47;;;;;;;6.38;2.00;;;14.20;99.90;;;;;;5015949;28;20030;-58
2022/09/17 03:59:13;;;;;;;2.45;1.85;;;14.00;99.90;;;;;;5015936;28;20365;-57
2022/09/17 04:01:39;;;;;;;2.78;2.03;;;13.90;99.90;;;;;;5015749;28;20068;-58
2022/09/17 04:04:05;;;;;;;3.30;2.20;;;13.90;99.90;;;;;;5015757;28;20034;-57
2022/09/17 04:06:31;;;;;;;8.85;3.25;;;13.80;99.90;;;;;;5015602;28;20038;-58
2022/09/17 04:08:59;;;;;;;5.97;2.35;;;13.80;99.90;;;;;;5015815;28;20030;-58
2022/09/17 04:11:25;;;;;;;5.28;2.33;;;13.80;99.90;;;;;;5015669;28;20109;-58
2022/09/17 04:13:51;;;;;;;5.35;2.78;;;13.70;99.90;;;;;;5015624;28;20703;-58
2022/09/17 04:16:18;;;;;;;6.63;2.90;;;13.60;99.90;;;;;;5015725;28;20033;-58
2022/09/17 04:18:43;;;;;;;6.65;2.60;;;13.70;99.90;;;;;;5015558;28;20026;-58
2022/09/17 04:21:09;;;;;;;3.33;2.30;;;13.70;99.90;;;;;;5015165;28;20422;-57
2022/09/17 04:23:35;;;;;;;5.75;2.47;;;13.50;99.90;;;;;;5015602;28;20026;-58
2022/09/17 04:26:01;;;;;;;5.75;2.63;;;13.60;99.90;;;;;;5015363;28;20037;-58
2022/09/17 04:28:27;;;;;;;3.88;2.30;;;13.50;99.90;;;;;;5014292;28;20034;-57
2022/09/17 04:30:53;;;;;;;5.80;2.53;;;13.50;99.90;;;;;;5015250;28;20071;-58
2022/09/17 04:33:19;;;;;;;7.20;2.53;;;13.60;99.90;;;;;;5015116;28;20037;-58
2022/09/17 04:35:45;;;;;;;6.22;3.08;;;13.60;99.90;;;;;;5015131;28;20425;-58
2022/09/17 04:38:17;;;;;;;4.97;2.90;;;13.70;99.90;;;;;;5015131;28;20103;-58
2022/09/17 04:40:43;;;;;;;3.92;2.90;;;13.70;99.90;;;;;;5015112;28;20028;-57
2022/09/17 04:43:09;;;;;;;5.32;2.85;;;13.60;99.90;;;;;;5015095;28;20034;-58
2022/09/17 04:45:35;;;;;;;5.22;3.38;;;13.50;99.90;;;;;;5015158;28;20057;-58
2022/09/17 04:48:02;;;;;;;8.02;3.10;;;13.60;99.90;;;;;;5015120;28;20109;-58
2022/09/17 04:50:28;;;;;;;4.28;3.28;;;13.70;99.90;;;;;;5014943;28;20030;-58
2022/09/17 04:52:54;;;;;;;10.45;3.00;;;13.60;99.90;;;;;;5014767;28;20383;-57
2022/09/17 04:55:19;;;;;;;4.97;3.40;;;13.60;99.90;;;;;;5014960;28;20025;-57
2022/09/17 04:57:47;;;;;;;9.35;4.40;;;13.50;99.90;;;;;;5014891;28;20399;-58
2022/09/17 05:00:14;;;;;;;6.70;4.25;;;13.50;99.90;;;;;;5015115;28;20018;-58
2022/09/17 05:02:41;;;;;;;5.65;4.22;;;13.50;99.90;;;;;;5014928;28;20032;-58
2022/09/17 05:05:08;;;;;;;6.03;3.60;;;13.50;99.90;;;;;;5014882;28;20053;-58
2022/09/17 05:07:33;;;;;;;8.85;3.13;;;13.60;99.90;;;;;;5014673;28;20538;-58
2022/09/17 05:09:59;;;;;;;8.20;3.58;;;13.50;99.90;;;;;;5014813;28;20042;-58
2022/09/17 05:12:25;;;;;;;5.80;3.22;;;13.50;99.90;;;;;;5014698;28;20036;-58
2022/09/17 05:14:51;;;;;;;9.27;4.50;;;13.40;99.90;;;;;;5014570;28;20033;-58
2022/09/17 05:17:17;;;;;;;7.38;3.92;;;13.50;99.90;;;;;;5014643;28;20026;-58
2022/09/17 05:19:43;;;;;;;10.68;4.72;;;13.50;99.90;;;;;;5014668;28;20124;-58
2022/09/17 05:22:08;;;;;;;9.43;5.60;;;13.50;99.90;;;;;;5014531;28;20026;-58
2022/09/17 05:24:38;;;;;;;10.40;5.53;;;13.50;99.90;;;;;;5014565;28;20068;-58
2022/09/17 05:27:07;;;;;;;9.63;4.97;;;13.50;99.90;;;;;;5014649;28;20034;-58
2022/09/17 05:29:33;;;;;;;8.45;4.82;;;13.60;99.90;;;;;;5014624;28;20042;-58
2022/09/17 05:31:59;;;;;;;9.05;5.13;;;13.70;99.90;;;;;;5014448;28;20460;-57
2022/09/17 05:34:25;;;;;;;12.32;5.97;;;13.70;99.90;;;;;;5014535;28;20061;-58
2022/09/17 05:36:51;;;;;;;8.02;6.10;;;13.80;99.90;;;;;;5014420;28;20076;-57
2022/09/17 05:39:17;;;;;;;17.10;6.45;;;13.70;99.90;;;;;;5014478;28;20032;-57
2022/09/17 05:41:43;;;;;;;12.35;6.35;;;13.70;99.90;;;;;;5014490;28;20041;-58
2022/09/17 05:44:09;;;;;;;7.40;4.85;;;13.70;99.90;;;;;;5014425;28;20034;-58
2022/09/17 05:46:35;;;;;;;7.57;4.72;;;13.70;99.90;;;;;;5016020;28;20026;-58
2022/09/17 05:49:01;;;;;;;10.63;4.70;;;13.70;99.90;;;;;;5018420;28;20034;-58
2022/09/17 05:51:27;;;;;;;6.63;5.13;;;13.70;99.90;;;;;;5018243;28;20057;-58
2022/09/17 05:53:54;;;;;;;7.07;5.20;;;13.60;99.90;;;;;;5018166;28;20084;-58
2022/09/17 05:56:20;;;;;;;8.60;5.55;;;13.60;99.90;;;;;;5018321;28;20104;-58
2022/09/17 05:58:47;;;;;;;8.63;4.97;;;13.60;99.90;;;;;;5018200;28;20041;-58
2022/09/17 06:01:15;;;;;;;11.73;5.22;;;13.60;99.90;;;;;;5017977;28;20030;-58
2022/09/17 06:03:43;;;;;;;11.43;5.75;;;13.50;99.90;;;;;;5018023;28;20097;-58
2022/09/17 06:06:09;;;;;;;9.55;5.78;;;13.60;99.90;;;;;;5017968;28;20042;-58
2022/09/17 06:08:35;;;;;;;9.95;5.50;;;13.70;99.90;;;;;;5017969;28;20060;-58
2022/09/17 06:11:08;;;;;;;12.45;6.65;;;13.70;99.90;;;;;;5017967;28;20037;-58
2022/09/17 06:13:34;;;;;;;13.10;7.10;;;13.70;99.90;;;;;;5017631;28;20084;-58
2022/09/17 06:16:01;;;;;;;7.32;5.70;;;13.80;99.90;;;;;;5017843;28;20487;-57
2022/09/17 06:18:31;;;;;;;8.73;5.20;;;13.80;99.90;;;;;;5017722;28;20034;-58
2022/09/17 06:20:59;;;;;;;8.68;6.75;;;13.80;99.90;;;;;;5017749;28;20545;-58
2022/09/17 06:23:26;;;;;;;14.30;7.90;;;13.80;99.90;;;;;;5017755;28;20042;-58
2022/09/17 06:25:57;;;;;;;20.85;11.07;;;13.70;99.90;;;;;;5017586;28;20038;-58
2022/09/17 06:28:24;;;;;;;18.48;11.00;;;13.70;99.90;;;;;;5017478;28;20026;-57
2022/09/17 06:30:53;;;;;;;24.20;13.27;;;13.80;99.90;;;;;;5017624;28;20030;-58
2022/09/17 06:33:20;;;;;;;24.67;15.27;;;13.80;99.90;;;;;;5017513;28;20040;-58
2022/09/17 06:35:46;;;;;;;34.38;16.52;;;13.80;99.90;;;;;;5017465;28;20041;-58
2022/09/17 06:38:12;;;;;;;42.75;20.27;;;13.70;99.90;;;;;;5017544;28;20030;-57
2022/09/17 06:40:38;;;;;;;53.30;25.88;;;13.70;99.90;;;;;;5017239;28;20083;-57
2022/09/17 06:43:04;;;;;;;64.10;26.35;;;13.70;99.90;;;;;;5017338;28;20117;-57
2022/09/17 06:45:31;;;;;;;60.13;24.58;;;13.70;99.90;;;;;;5017369;28;20037;-57
2022/09/17 06:47:56;;;;;;;60.42;24.15;;;13.70;99.90;;;;;;5017268;28;20025;-57
2022/09/17 06:50:23;;;;;;;54.67;24.10;;;13.70;99.90;;;;;;5032130;28;20073;-57
2022/09/17 06:52:53;;;;;;;72.72;29.80;;;13.70;99.90;;;;;;5016972;28;20058;-57
2022/09/17 06:55:20;;;;;;;69.65;29.98;;;13.60;99.90;;;;;;5017060;28;20022;-57
2022/09/17 06:57:46;;;;;;;60.55;26.17;;;13.70;99.90;;;;;;5015805;28;20049;-58
2022/09/17 07:00:13;;;;;;;57.70;25.65;;;13.60;99.90;;;;;;5017043;28;20034;-57
2022/09/17 07:02:39;;;;;;;59.20;28.58;;;13.60;99.90;;;;;;5016716;28;20492;-58
2022/09/17 07:05:06;;;;;;;58.40;27.35;;;13.70;99.90;;;;;;5016939;28;20080;-57
2022/09/17 07:07:34;;;;;;;53.83;24.10;;;13.70;99.90;;;;;;5016988;28;20484;-58
2022/09/17 07:10:01;;;;;;;59.47;24.67;;;13.80;99.90;;;;;;5016805;28;20022;-57
2022/09/17 07:12:27;;;;;;;66.45;25.33;;;13.80;99.90;;;;;;5016883;28;20021;-57
2022/09/17 07:14:53;;;;;;;49.08;20.85;;;13.80;99.90;;;;;;5016940;28;20046;-58
2022/09/17 07:17:19;;;;;;;49.17;21.10;;;13.80;99.90;;;;;;5016584;28;20061;-57
2022/09/17 07:19:45;;;;;;;45.67;19.33;;;13.80;99.90;;;;;;5016613;28;20018;-57
2022/09/17 07:22:12;;;;;;;47.88;21.45;;;13.70;99.90;;;;;;5016514;28;20026;-57
2022/09/17 07:24:38;;;;;;;52.25;22.35;;;13.80;99.90;;;;;;5016404;28;20061;-57
2022/09/17 07:27:04;;;;;;;50.28;23.83;;;13.90;99.90;;;;;;5016564;28;20033;-57
2022/09/17 07:29:31;;;;;;;64.57;29.77;;;13.80;99.90;;;;;;5016608;28;20038;-57
2022/09/17 07:31:58;;;;;;;72.47;31.33;;;13.90;99.90;;;;;;5016280;28;20051;-58
2022/09/17 07:34:26;;;;;;;75.97;32.20;;;14.00;99.90;;;;;;5016337;28;20109;-58
2022/09/17 07:36:52;;;;;;;71.00;32.25;;;14.00;99.90;;;;;;5016098;28;20041;-57
2022/09/17 07:39:18;;;;;;;71.00;33.17;;;14.00;99.90;;;;;;5016079;28;20030;-58
2022/09/17 07:41:44;;;;;;;74.25;32.92;;;14.10;99.90;;;;;;5016252;28;20057;-58
2022/09/17 07:44:10;;;;;;;57.55;28.25;;;14.20;99.90;;;;;;5016167;28;20026;-57
2022/09/17 07:46:36;;;;;;;62.00;31.50;;;14.10;99.90;;;;;;5016090;28;20077;-58
2022/09/17 07:49:02;;;;;;;67.35;30.90;;;14.10;99.90;;;;;;5016496;28;20022;-57
2022/09/17 07:51:28;;;;;;;69.82;30.13;;;14.20;99.90;;;;;;5015808;28;20096;-58
2022/09/17 07:53:57;;;;;;;74.28;30.23;;;14.10;99.90;;;;;;5015976;28;20037;-58
2022/09/17 07:56:23;;;;;;;95.43;33.88;;;14.10;99.90;;;;;;5016052;28;20079;-57
2022/09/17 07:58:50;;;;;;;107.60;39.33;;;14.10;99.90;;;;;;5016008;28;20030;-58
2022/09/17 08:01:16;;;;;;;133.48;41.90;;;14.10;99.90;;;;;;5016079;28;20049;-58
2022/09/17 08:03:48;;;;;;;147.27;48.85;;;14.00;99.90;;;;;;5015852;28;20030;-58
2022/09/17 08:06:16;;;;;;;145.98;48.13;;;14.00;99.90;;;;;;5015632;28;20029;-58
2022/09/17 08:08:42;;;;;;;154.63;49.28;;;14.10;99.90;;;;;;5015382;28;20046;-58
2022/09/17 08:11:13;;;;;;;155.05;50.22;;;14.20;99.90;;;;;;5015831;28;20071;-58
2022/09/17 08:13:40;;;;;;;146.13;48.88;;;14.00;99.90;;;;;;5015430;28;20065;-58
2022/09/17 08:16:14;;;;;;;141.02;48.10;;;14.10;99.90;;;;;;5015552;28;20082;-57
2022/09/17 08:18:41;;;;;;;159.05;48.25;;;14.10;99.90;;;;;;5015453;28;20022;-58
2022/09/17 08:21:09;;;;;;;133.27;46.60;;;14.20;99.90;;;;;;5015319;28;20084;-57
2022/09/17 08:23:37;;;;;;;148.05;46.88;;;14.20;99.90;;;;;;5015466;28;20057;-58
2022/09/17 08:26:07;;;;;;;142.15;46.92;;;14.10;99.90;;;;;;5015370;28;20507;-58
2022/09/17 08:28:34;;;;;;;142.38;45.65;;;14.10;99.90;;;;;;5015342;28;20041;-58
2022/09/17 08:31:05;;;;;;;132.30;44.53;;;14.10;99.90;;;;;;5015347;28;20030;-58
2022/09/17 08:33:32;;;;;;;127.38;43.50;;;14.10;99.90;;;;;;5015353;28;20021;-58
2022/09/17 08:35:59;;;;;;;123.63;42.90;;;14.10;99.90;;;;;;5015271;28;20026;-58
2022/09/17 08:38:31;;;;;;;129.65;43.70;;;14.00;99.90;;;;;;5015190;28;20033;-58
2022/09/17 08:41:10;;;;;;;129.52;45.00;;;14.10;99.90;;;;;;5015211;28;20057;-58
2022/09/17 08:43:59;;;;;;;114.65;41.22;;;14.20;99.90;;;;;;5014908;28;20476;-57
2022/09/17 08:46:26;;;;;;;106.80;40.88;;;14.30;99.90;;;;;;5015189;28;20026;-58
2022/09/17 08:49:14;;;;;;;113.32;40.60;;;14.20;99.90;;;;;;5015011;28;20044;-57
2022/09/17 08:52:17;;;;;;;116.20;38.90;;;14.30;99.90;;;;;;5014832;28;20069;-57
2022/09/17 08:54:57;;;;;;;106.78;37.15;;;14.40;99.90;;;;;;5015022;28;20034;-57
2022/09/17 08:57:55;;;;;;;99.85;36.58;;;14.40;99.90;;;;;;5014776;28;20030;-57
2022/09/17 09:00:22;;;;;;;111.57;39.80;;;14.40;99.90;;;;;;5014768;28;20057;-57
2022/09/17 09:03:22;;;;;;;113.30;37.55;;;14.30;99.90;;;;;;5014861;28;20423;-58
2022/09/17 09:05:52;;;;;;;97.05;35.15;;;14.40;99.90;;;;;;5014753;28;20026;-58
2022/09/17 09:08:23;;;;;;;107.10;35.85;;;14.30;99.90;;;;;;5014789;28;20156;-58
2022/09/17 09:10:59;;;;;;;104.60;35.10;;;14.40;99.90;;;;;;5014585;28;20034;-58
2022/09/17 09:13:35;;;;;;;91.30;34.35;;;14.50;99.90;;;;;;5014604;28;20029;-58
2022/09/17 09:16:16;;;;;;;94.95;34.28;;;14.50;99.90;;;;;;5014702;28;20034;-58
2022/09/17 09:18:42;;;;;;;;;;;14.50;99.90;;;;;;5015336;28;20034;-58
2022/09/17 09:21:25;;;;;;;90.65;33.92;;;14.50;99.90;;;;;;5013597;28;19912;-58
2022/09/17 09:24:12;;;;;;;82.65;33.63;;;14.40;99.90;;;;;;5014518;28;20060;-58
2022/09/17 09:26:56;;;;;;;87.00;34.13;;;14.50;99.90;;;;;;5014459;28;20385;-58
2022/09/17 09:29:46;;;;;;;73.32;30.13;;;14.50;99.90;;;;;;5014826;28;20033;-57
2022/09/17 09:32:35;;;;;;;84.22;32.35;;;14.50;99.90;;;;;;5014493;28;20041;-57
2022/09/17 09:35:15;;;;;;;82.65;31.70;;;14.60;99.90;;;;;;5014557;28;20447;-58
2022/09/17 09:37:49;;;;;;;78.10;31.35;;;14.70;99.90;;;;;;5014437;28;20018;-58
2022/09/17 09:40:23;;;;;;;79.28;31.42;;;14.80;99.90;;;;;;5014580;28;20029;-58
2022/09/17 09:42:54;;;;;;;74.22;30.88;;;14.80;99.90;;;;;;5014425;28;20033;-57
2022/09/17 09:45:32;;;;;;;70.80;29.27;;;14.80;99.90;;;;;;5014393;28;20112;-58
2022/09/17 09:48:11;;;;;;;74.80;31.15;;;14.80;99.90;;;;;;5014445;28;20238;-58
2022/09/17 09:50:56;;;;;;;68.65;27.98;;;14.80;99.90;;;;;;5014297;28;20022;-58
2022/09/17 09:53:33;;;;;;;64.80;27.55;;;14.80;99.90;;;;;;5014307;28;20440;-58
2022/09/17 09:56:05;;;;;;;62.28;28.27;;;14.70;99.90;;;;;;5014363;28;20025;-58
2022/09/17 09:58:37;;;;;;;71.20;29.02;;;14.70;99.90;;;;;;5014335;28;20057;-58
2022/09/17 10:01:15;;;;;;;69.43;29.25;;;14.80;99.90;;;;;;5014192;28;20030;-58
2022/09/17 10:03:44;;;;;;;66.05;27.70;;;14.90;99.90;;;;;;5014228;28;20053;-58
2022/09/17 10:06:15;;;;;;;70.35;27.88;;;14.80;99.90;;;;;;5014216;28;20036;-58
2022/09/17 10:09:04;;;;;;;56.28;25.55;;;14.80;99.90;;;;;;5014240;28;20037;-58
2022/09/17 10:11:34;;;;;;;47.22;20.25;;;14.90;99.90;;;;;;5014247;28;20045;-58
2022/09/17 10:14:18;;;;;;;49.90;22.40;;;14.60;99.90;;;;;;5014135;28;20033;-58
2022/09/17 10:16:44;;;;;;;39.92;17.88;;;14.70;99.90;;;;;;5013865;28;20029;-58
2022/09/17 10:19:13;;;;;;;31.10;14.15;;;14.70;99.90;;;;;;5014050;28;20080;-58
2022/09/17 10:21:42;;;;;;;31.58;14.32;;;14.70;99.90;;;;;;5013718;28;20022;-58
2022/09/17 10:24:19;;;;;;;23.00;11.10;;;14.70;99.90;;;;;;5014096;28;20045;-58
2022/09/17 10:26:46;;;;;;;29.52;12.32;;;14.70;99.90;;;;;;5014098;28;20468;-58
2022/09/17 10:29:17;;;;;;;24.73;11.35;;;14.80;99.90;;;;;;5013951;28;20061;-58
2022/09/17 10:31:51;;;;;;;16.38;7.38;;;14.90;99.90;;;;;;5014293;28;20030;-58
2022/09/17 10:34:20;;;;;;;10.65;5.88;;;15.00;99.90;;;;;;5017498;28;20038;-58
2022/09/17 10:36:47;;;;;;;11.73;4.47;;;15.00;99.90;;;;;;5017401;28;20026;-58
2022/09/17 10:39:33;;;;;;;11.57;4.25;;;15.00;99.90;;;;;;5017405;28;20025;-58
2022/09/17 10:42:03;;;;;;;6.72;3.35;;;15.10;99.90;;;;;;5017459;28;20399;-58
2022/09/17 10:44:35;;;;;;;5.22;2.30;;;15.00;99.90;;;;;;5017262;28;20036;-58
2022/09/17 10:47:18;;;;;;;4.15;1.85;;;15.00;99.90;;;;;;5017406;28;20022;-58
2022/09/17 10:49:53;;;;;;;2.58;1.20;;;15.00;99.90;;;;;;5017092;28;20326;-58
2022/09/17 10:52:34;;;;;;;4.45;1.30;;;15.00;99.90;;;;;;5016962;28;20508;-58
2022/09/17 10:55:13;;;;;;;1.30;0.90;;;14.90;99.90;;;;;;5016993;28;20187;-58
2022/09/17 10:58:10;;;;;;;3.63;0.90;;;14.90;99.90;;;;;;5017013;28;20555;-58
2022/09/17 11:00:49;;;;;;;3.15;0.60;;;15.00;99.90;;;;;;5017090;28;20068;-58
2022/09/17 11:03:28;;;;;;;1.30;0.52;;;14.70;99.90;;;;;;5016796;28;20045;-58
2022/09/17 11:06:03;;;;;;;6.75;1.48;;;14.70;99.90;;;;;;5016939;28;20064;-58
2022/09/17 11:08:47;;;;;;;5.05;2.28;;;14.80;99.90;;;;;;5016880;28;20228;-58
2022/09/17 11:11:47;;;;;;;11.15;3.38;;;14.90;99.90;;;;;;5016869;28;20216;-58
2022/09/17 11:14:53;;;;;;;6.82;2.17;;;14.90;99.90;;;;;;5016700;28;20060;-58
2022/09/17 11:17:57;;;;;;;2.17;0.32;;;15.00;99.90;;;;;;5016719;28;20029;-58
2022/09/17 11:21:00;;;;;;;0.30;0.30;;;14.80;99.90;;;;;;4993481;28;20503;-58
2022/09/17 11:23:45;;;;;;;9.70;2.75;;;14.70;99.90;;;;;;5016616;28;20033;-58
2022/09/17 11:26:26;;;;;;;1.00;0.80;;;14.80;99.90;;;;;;5016422;28;20049;-58
2022/09/17 11:29:19;;;;;;;1.60;1.40;;;14.90;99.90;;;;;;5016355;28;20403;-58
2022/09/17 11:31:48;;;;;;;10.90;6.65;;;15.00;99.90;;;;;;5016626;28;20113;-58
2022/09/17 11:34:17;;;;;;;6.25;4.55;;;14.90;99.90;;;;;;5016228;28;20036;-58
2022/09/17 11:37:15;;;;;;;7.40;3.83;;;14.90;99.90;;;;;;5016444;28;20033;-58
2022/09/17 11:39:47;;;;;;;1.98;1.10;;;14.80;99.90;;;;;;4996468;28;20050;-58
2022/09/17 11:42:24;;;;;;;3.65;2.13;;;14.80;99.90;;;;;;4996634;28;20034;-58
2022/09/17 11:44:53;;;;;;;2.83;1.13;;;15.00;99.90;;;;;;4995823;28;20061;-58
2022/09/17 11:47:29;;;;;;;2.10;0.55;;;14.90;99.90;;;;;;4996652;28;20030;-58
2022/09/17 11:50:00;;;;;;;5.95;2.60;;;14.80;99.90;;;;;;4996872;28;20034;-58
2022/09/17 11:52:36;;;;;;;3.47;1.40;;;14.80;99.90;;;;;;4996345;28;20053;-58
2022/09/17 11:55:08;;;;;;;4.57;2.75;;;14.70;99.90;;;;;;4996218;28;20030;-58
2022/09/17 11:57:38;;;;;;;5.35;2.80;;;14.90;99.90;;;;;;4996505;28;20034;-58
2022/09/17 12:00:13;;;;;;;4.75;2.50;;;14.90;99.90;;;;;;4996368;28;20034;-58
2022/09/17 12:02:42;;;;;;;4.38;2.17;;;15.10;99.90;;;;;;4996265;28;20086;-58
2022/09/17 12:05:17;;;;;;;4.10;2.13;;;15.20;99.90;;;;;;4996199;28;20038;-58
2022/09/17 12:07:46;;;;;;;1.75;1.10;;;15.20;99.90;;;;;;4996426;28;20103;-58
2022/09/17 12:10:30;;;;;;;2.90;1.20;;;15.10;99.90;;;;;;5011216;28;20104;-58
2022/09/17 12:13:12;;;;;;;3.20;0.43;;;14.90;99.90;;;;;;4996105;28;20424;-58
2022/09/17 12:15:43;;;;;;;1.77;1.20;;;14.80;99.90;;;;;;4995995;28;20523;-58
2022/09/17 12:18:23;;;;;;;1.23;0.82;;;14.80;99.90;;;;;;4995923;28;20031;-58
2022/09/17 12:20:52;;;;;;;2.80;1.50;;;14.80;99.90;;;;;;5004121;28;20099;-58
2022/09/17 12:23:43;;;;;;;5.45;2.60;;;14.70;99.90;;;;;;5015453;28;20472;-58
2022/09/17 12:26:19;;;;;;;6.00;3.30;;;14.70;99.90;;;;;;5030831;28;20034;-58
2022/09/17 12:29:00;;;;;;;2.90;1.80;;;14.60;99.90;;;;;;5015589;28;20050;-58
2022/09/17 12:31:31;;;;;;;;;;;14.60;99.90;;;;;;5015795;28;20034;-58
2022/09/17 12:34:03;;;;;;;;;;;14.50;99.90;;;;;;5015837;28;19920;-58
2022/09/17 12:37:12;;;;;;;0.70;0.70;;;14.50;99.90;;;;;;5015417;28;19913;-58
2022/09/17 12:40:01;;;;;;;3.42;1.10;;;14.50;99.90;;;;;;4989299;28;20045;-58
2022/09/17 12:42:50;;;;;;;4.07;1.77;;;14.40;99.90;;;;;;4994225;28;20052;-58
2022/09/17 12:45:23;;;;;;;7.18;2.00;;;14.50;99.90;;;;;;4995571;28;20499;-58
2022/09/17 12:48:27;;;;;;;0.70;0.60;;;14.40;99.90;;;;;;4995537;28;20046;-58
2022/09/17 12:51:30;;;;;;;1.85;0.90;;;14.30;99.90;;;;;;4986846;28;20112;-58
2022/09/17 12:54:21;;;;;;;2.28;1.05;;;14.40;99.90;;;;;;4995381;28;20042;-58
2022/09/17 12:57:11;;;;;;;2.08;1.15;;;14.40;99.90;;;;;;4995422;28;20031;-58
2022/09/17 12:59:53;;;;;;;9.77;3.83;;;14.40;99.90;;;;;;4995100;28;20034;-58
2022/09/17 13:02:27;;;;;;;3.78;1.20;;;14.30;99.90;;;;;;4995298;28;20053;-58
2022/09/17 13:05:31;;;;;;;4.68;1.88;;;14.30;99.90;;;;;;4995274;28;20444;-58
2022/09/17 13:08:22;;;;;;;9.18;2.88;;;14.10;99.90;;;;;;4995539;28;20042;-58